< < Back
Terminal Aerodrome Forecast


Current Version              Previous Versions:   1  2  3  4  5  6  7  8  9  

Terminal Aerodrome Forecast

183
FTUS42 KGSP 040537
TAFAND
TAF
KAND 040537Z 0406/0506 24006KT P6SM BKN060
     FM040700 24006KT P6SM -SHRA VCTS OVC040CB
     FM041100 24008KT P6SM -SHRA VCTS OVC060CB
      TEMPO 0412/0416 4SM TSRA OVC040CB
     FM041600 24012G20KT P6SM -SHRA BKN050 PROB30 0416/0422 4SM TSRA
      BKN040CB
     FM042200 24014G24KT P6SM VCTS BKN060CB
     FM050000 24010KT P6SM BKN230=

Latest METAR

926
SAUS70 KWBC 041700
MTRAND
METAR KAND 041656Z AUTO 25011KT 10SM FEW080 BKN110 25/20 A3009 RMK AO2
SLP180 T02500200


USA.gov is the U.S. government's official web portal to all federal, state and local government web resources and services.